This demonstration page uses our WeatherBlox Daily Observations layout. Learn more.

Left ArrowRight Arrow

Hourly Observations for August 15, 2017

Temp ( °F °C ) Dew Point ( °F °C ) Humidity (%) Winds ( mph kmh ) Pressure ( in mb ) Visibility ( mi km ) Precip ( " mm )
12:51 am 00:51 Clear 73 22.8 59 15 62 62 SE 6 9 29.73 1007 10 16.0934 0 0
1:51 am 01:51 Mostly Clear 74 23.3 60 15.6 62 62 E 8 13 29.72 1007 10 16.0934 0 0
2:51 am 02:51 Clear 72 22.2 58 14.4 61 61 NE 3 6 29.72 1007 10 16.0934 0 0
3:51 am 03:51 Clear 70 21.1 58 14.4 66 66 ESE 3 6 29.73 1007 10 16.0934 0 0
4:51 am 04:51 Partly Cloudy 70 21.1 58 14.4 66 66 N 3 6 29.74 1007 10 16.0934 0 0
5:51 am 05:51 Sunny 69 20.6 59 15 70 70 Calm 29.76 1008 10 16.0934 0 0
6:51 am 06:51 Sunny 74 23.3 61 16.1 64 64 Calm 29.78 1008 10 16.0934 0 0
7:51 am 07:51 Sunny 80 26.7 57 13.9 45 45 E 5 7 29.79 1009 10 16.0934 0 0
8:51 am 08:51 Sunny 83 28.3 58 14.4 43 43 Calm 29.8 1009 10 16.0934 0 0
9:51 am 09:51 Sunny 85 29.4 58 14.4 40 40 VRB 5 7 29.8 1009 10 16.0934 0 0
10:51 am 10:51 Sunny 88 31.1 56 13.3 34 34 W 10 17 29.8 1009 10 16.0934 0 0
11:51 am 11:51 Sunny 90 32.2 58 14.4 34 34 W 10 17 29.76 1008 10 16.0934 0 0
12:51 pm 12:51 Sunny 91 32.8 55 12.8 30 30 W 13 20 29.75 1007 10 16.0934 0 0
1:51 pm 13:51 Partly Cloudy 94 34.4 52 11.1 24 24 W 12 19 29.71 1006 10 16.0934 0 0
2:51 pm 14:51 Sunny 92 33.3 51 10.6 25 25 VRB 6 9 29.71 1006 10 16.0934 0 0
3:51 pm 15:51 Sunny 95 35 44 6.7 17 17 WNW 16 26 29.69 1005 10 16.0934 0 0
4:51 pm 16:51 Sunny 94 34.4 44 6.7 18 18 NW 17 28 29.68 1005 10 16.0934 0 0
5:51 pm 17:51 Mostly Sunny 91 32.8 48 8.9 23 23 W 21 33 29.7 1006 10 16.0934 0 0
6:51 pm 18:51 Sunny 88 31.1 49 9.4 26 26 W 14 22 29.7 1006 10 16.0934 0 0
7:51 pm 19:51 Clear 84 28.9 51 10.6 32 32 WNW 7 11 29.71 1006 10 16.0934 0 0.0254
8:51 pm 20:51 Clear 80 26.7 53 11.7 39 39 NNW 6 9 29.73 1007 10 16.0934 0 0
9:51 pm 21:51 Clear 78 25.6 53 11.7 42 42 N 7 11 29.74 1007 10 16.0934 0 0
10:51 pm 22:51 Clear 78 25.6 52 11.1 40 40 NNW 3 6 29.75 1008 10 16.0934 0 0
11:51 pm 23:51 Clear 77 25 49 9.4 37 37 NW 9 15 29.75 1008 10 16.0934 0 0

Powered by AerisWeather